SWR2EG LSZH-LEPA
Flight info
| Callsign | SWR2EG |
|---|---|
| Flight time | N/A |
| Altitude | 39000 |
| Route | VEBIT T50 ROTOS Z669 ULMES DCT VADAR DCT GEVEA DCT INCUS DCT BALSI DCT RETNO DCT TUPOX DCT MTG DCT DIVKO DCT VATIR DCT PIVUS DCT BODEQ DCT VERSO L129 LUNIK |
| Aircraft | A320/M-SDE2E3FGIRWXY/L |
Departure
| Time | 2026-04-30 14:08 |
|---|---|
| Airport | Zürich Airport (LSZH) |
Arrival
| Time | N/A |
|---|---|
| Airport | Palma de Mallorca Airport (LEPA) |
| Time | Latitude | Longitude | Altitude | Speed | Heading |
|---|---|---|---|---|---|
| 2026-04-30 13:29 | 47.45418 | 8.55872 | 1415 ft | 0 kts | 186° |
| 2026-04-30 13:57 | 47.45441 | 8.55876 | 1414 ft | 4 kts | 191° |
| 2026-04-30 13:57 | 47.45467 | 8.55886 | 1409 ft | 4 kts | 203° |
| 2026-04-30 13:58 | 47.45489 | 8.55906 | 1414 ft | 4 kts | 233° |
| 2026-04-30 13:58 | 47.45496 | 8.55929 | 1410 ft | 0 kts | 276° |
| 2026-04-30 14:01 | 47.45496 | 8.55927 | 1414 ft | 1 kts | 276° |
| 2026-04-30 14:01 | 47.45501 | 8.55880 | 1410 ft | 8 kts | 292° |
| 2026-04-30 14:01 | 47.45563 | 8.55845 | 1408 ft | 12 kts | 2° |
| 2026-04-30 14:02 | 47.45637 | 8.55809 | 1410 ft | 13 kts | 299° |
| 2026-04-30 14:02 | 47.45649 | 8.55677 | 1411 ft | 13 kts | 277° |
| 2026-04-30 14:02 | 47.45660 | 8.55543 | 1403 ft | 13 kts | 277° |
| 2026-04-30 14:02 | 47.45671 | 8.55408 | 1400 ft | 13 kts | 277° |
| 2026-04-30 14:03 | 47.45682 | 8.55268 | 1403 ft | 14 kts | 276° |
| 2026-04-30 14:03 | 47.45632 | 8.55164 | 1396 ft | 13 kts | 204° |
| 2026-04-30 14:03 | 47.45550 | 8.55122 | 1400 ft | 11 kts | 198° |
| 2026-04-30 14:03 | 47.45483 | 8.55088 | 1399 ft | 9 kts | 199° |
| 2026-04-30 14:04 | 47.45450 | 8.55020 | 1397 ft | 9 kts | 269° |
| 2026-04-30 14:04 | 47.45468 | 8.54928 | 1396 ft | 10 kts | 289° |
| 2026-04-30 14:04 | 47.45493 | 8.54823 | 1394 ft | 13 kts | 289° |
| 2026-04-30 14:04 | 47.45525 | 8.54687 | 1387 ft | 16 kts | 289° |
| 2026-04-30 14:05 | 47.45563 | 8.54509 | 1387 ft | 19 kts | 288° |
| 2026-04-30 14:05 | 47.45601 | 8.54336 | 1385 ft | 18 kts | 289° |
| 2026-04-30 14:05 | 47.45639 | 8.54164 | 1384 ft | 17 kts | 287° |
| 2026-04-30 14:05 | 47.45671 | 8.54009 | 1386 ft | 15 kts | 287° |
| 2026-04-30 14:06 | 47.45699 | 8.53880 | 1387 ft | 11 kts | 287° |
| 2026-04-30 14:06 | 47.45755 | 8.53765 | 1393 ft | 7 kts | 328° |
| 2026-04-30 14:07 | 47.45883 | 8.53937 | 1396 ft | 23 kts | 90° |
| 2026-04-30 14:07 | 47.45846 | 8.54500 | 1390 ft | 90 kts | 96° |
| 2026-04-30 14:07 | 47.45757 | 8.55712 | 1409 ft | 144 kts | 96° |
| 2026-04-30 14:08 | 47.45517 | 8.58713 | 2577 ft | 152 kts | 92° |
| 2026-04-30 14:08 | 47.45405 | 8.60336 | 2965 ft | 167 kts | 92° |
| 2026-04-30 14:08 | 47.45187 | 8.64129 | 3561 ft | 194 kts | 85° |
| 2026-04-30 14:09 | 47.45505 | 8.66064 | 4071 ft | 195 kts | 64° |
| 2026-04-30 14:09 | 47.46325 | 8.67714 | 4524 ft | 206 kts | 44° |
| 2026-04-30 14:09 | 47.49104 | 8.68989 | 5813 ft | 226 kts | 355° |
| 2026-04-30 14:10 | 47.50595 | 8.68142 | 6395 ft | 236 kts | 325° |
| 2026-04-30 14:10 | 47.51696 | 8.66333 | 6983 ft | 243 kts | 297° |
| 2026-04-30 14:10 | 47.52106 | 8.63916 | 7579 ft | 246 kts | 268° |
| 2026-04-30 14:10 | 47.51693 | 8.61501 | 8270 ft | 244 kts | 239° |
| 2026-04-30 14:11 | 47.50742 | 8.59386 | 8781 ft | 254 kts | 233° |
| 2026-04-30 14:11 | 47.49676 | 8.57147 | 9052 ft | 278 kts | 234° |
| 2026-04-30 14:11 | 47.48524 | 8.54740 | 9489 ft | 293 kts | 234° |
| 2026-04-30 14:11 | 47.47343 | 8.52262 | 10280 ft | 295 kts | 234° |
| 2026-04-30 14:12 | 47.46131 | 8.49714 | 10646 ft | 314 kts | 234° |
| 2026-04-30 14:12 | 47.44829 | 8.46973 | 10841 ft | 337 kts | 234° |
| 2026-04-30 14:12 | 47.43449 | 8.44065 | 11222 ft | 351 kts | 234° |
| 2026-04-30 14:12 | 47.42513 | 8.42092 | 11554 ft | 357 kts | 234° |
| 2026-04-30 14:13 | 47.40588 | 8.38032 | 12401 ft | 365 kts | 235° |
| 2026-04-30 14:13 | 47.39137 | 8.34940 | 13078 ft | 368 kts | 237° |
| 2026-04-30 14:13 | 47.37893 | 8.31604 | 13658 ft | 374 kts | 243° |
| 2026-04-30 14:13 | 47.36676 | 8.28180 | 14255 ft | 379 kts | 243° |
| 2026-04-30 14:14 | 47.35451 | 8.24730 | 14867 ft | 381 kts | 243° |
| 2026-04-30 14:14 | 47.34218 | 8.21264 | 15494 ft | 384 kts | 243° |
| 2026-04-30 14:14 | 47.32967 | 8.17752 | 15990 ft | 390 kts | 243° |
| 2026-04-30 14:14 | 47.31716 | 8.14241 | 16529 ft | 394 kts | 243° |
| 2026-04-30 14:15 | 47.30441 | 8.10657 | 17143 ft | 396 kts | 243° |
| 2026-04-30 14:15 | 47.29140 | 8.07008 | 17733 ft | 399 kts | 243° |
| 2026-04-30 14:15 | 47.27857 | 8.03416 | 18245 ft | 404 kts | 243° |
| 2026-04-30 14:15 | 47.26599 | 7.99704 | 18765 ft | 407 kts | 248° |
| 2026-04-30 14:16 | 47.25522 | 7.95837 | 19271 ft | 409 kts | 249° |
| 2026-04-30 14:16 | 47.24442 | 7.91950 | 19769 ft | 412 kts | 249° |
| 2026-04-30 14:16 | 47.23353 | 7.88029 | 20262 ft | 415 kts | 249° |
| 2026-04-30 14:16 | 47.22252 | 7.84086 | 20788 ft | 418 kts | 248° |
| 2026-04-30 14:17 | 47.21137 | 7.80127 | 21295 ft | 421 kts | 248° |
| 2026-04-30 14:17 | 47.20008 | 7.76139 | 21756 ft | 424 kts | 248° |
| 2026-04-30 14:17 | 47.18680 | 7.72252 | 22225 ft | 428 kts | 239° |
| 2026-04-30 14:17 | 47.16941 | 7.68691 | 22721 ft | 430 kts | 231° |
| 2026-04-30 14:18 | 47.15071 | 7.65240 | 23143 ft | 434 kts | 231° |
| 2026-04-30 14:18 | 47.13186 | 7.61764 | 23585 ft | 436 kts | 231° |
| 2026-04-30 14:18 | 47.09391 | 7.54754 | 24353 ft | 441 kts | 232° |
| 2026-04-30 14:19 | 47.05561 | 7.47664 | 25056 ft | 445 kts | 231° |
| 2026-04-30 14:19 | 47.03630 | 7.44103 | 25391 ft | 447 kts | 231° |
| 2026-04-30 14:19 | 47.01684 | 7.40527 | 25731 ft | 450 kts | 231° |
| 2026-04-30 14:20 | 46.99728 | 7.36948 | 26078 ft | 451 kts | 231° |
| 2026-04-30 14:20 | 46.97759 | 7.33362 | 26423 ft | 453 kts | 231° |
| 2026-04-30 14:20 | 46.93795 | 7.26159 | 27091 ft | 456 kts | 231° |
| 2026-04-30 14:21 | 46.91806 | 7.22537 | 27412 ft | 458 kts | 231° |
| 2026-04-30 14:21 | 46.89808 | 7.18895 | 27737 ft | 460 kts | 231° |
| 2026-04-30 14:21 | 46.85790 | 7.11574 | 28332 ft | 464 kts | 230° |
| 2026-04-30 14:22 | 46.83764 | 7.07889 | 28615 ft | 466 kts | 230° |
| 2026-04-30 14:22 | 46.79682 | 7.00492 | 29157 ft | 470 kts | 230° |
| 2026-04-30 14:22 | 46.77627 | 6.96783 | 29418 ft | 471 kts | 230° |
| 2026-04-30 14:23 | 46.73522 | 6.89372 | 29944 ft | 474 kts | 230° |
| 2026-04-30 14:23 | 46.69367 | 6.81899 | 30409 ft | 476 kts | 230° |
| 2026-04-30 14:24 | 46.65191 | 6.74435 | 30962 ft | 474 kts | 229° |
| 2026-04-30 14:24 | 46.63029 | 6.70828 | 31248 ft | 472 kts | 227° |
| 2026-04-30 14:25 | 46.58525 | 6.63903 | 31807 ft | 470 kts | 225° |
| 2026-04-30 14:25 | 46.53985 | 6.57111 | 32378 ft | 467 kts | 225° |
| 2026-04-30 14:26 | 46.49513 | 6.50284 | 32943 ft | 465 kts | 226° |
| 2026-04-30 14:26 | 46.47300 | 6.46859 | 33219 ft | 464 kts | 226° |
| 2026-04-30 14:26 | 46.42902 | 6.40045 | 33804 ft | 461 kts | 226° |
| 2026-04-30 14:27 | 46.40718 | 6.36669 | 34104 ft | 459 kts | 226° |
| 2026-04-30 14:27 | 46.38527 | 6.33299 | 34320 ft | 458 kts | 227° |
| 2026-04-30 14:27 | 46.36344 | 6.29953 | 34617 ft | 455 kts | 227° |
| 2026-04-30 14:28 | 46.32007 | 6.23310 | 35072 ft | 454 kts | 227° |
| 2026-04-30 14:28 | 46.29839 | 6.19999 | 35154 ft | 452 kts | 226° |
| 2026-04-30 14:28 | 46.24825 | 6.14570 | 35166 ft | 453 kts | 207° |
| 2026-04-30 14:29 | 46.19918 | 6.12053 | 35165 ft | 453 kts | 191° |
| 2026-04-30 14:29 | 46.13687 | 6.10622 | 35167 ft | 455 kts | 189° |
| 2026-04-30 14:31 | 45.97817 | 6.07103 | 35139 ft | 463 kts | 189° |
| 2026-04-30 14:31 | 45.88281 | 6.04988 | 35139 ft | 462 kts | 189° |
| 2026-04-30 14:32 | 45.78749 | 6.02899 | 35132 ft | 462 kts | 190° |
| 2026-04-30 14:33 | 45.72398 | 6.01497 | 35138 ft | 462 kts | 190° |
| 2026-04-30 14:33 | 45.62870 | 5.99391 | 35113 ft | 462 kts | 191° |
| 2026-04-30 14:34 | 45.56527 | 5.98004 | 35123 ft | 460 kts | 190° |
| 2026-04-30 14:34 | 45.50202 | 5.96626 | 35131 ft | 459 kts | 190° |
| 2026-04-30 14:35 | 45.40769 | 5.94114 | 35127 ft | 462 kts | 194° |
| 2026-04-30 14:36 | 45.34507 | 5.92012 | 35136 ft | 463 kts | 195° |
| 2026-04-30 14:36 | 45.28233 | 5.89920 | 35147 ft | 463 kts | 198° |
| 2026-04-30 14:37 | 45.22227 | 5.86714 | 35154 ft | 461 kts | 203° |
| 2026-04-30 14:37 | 45.16249 | 5.83388 | 35147 ft | 462 kts | 203° |
| 2026-04-30 14:38 | 45.10308 | 5.80082 | 35153 ft | 462 kts | 203° |
| 2026-04-30 14:38 | 45.04283 | 5.76744 | 35147 ft | 462 kts | 202° |
| 2026-04-30 14:39 | 44.98322 | 5.73458 | 35144 ft | 463 kts | 202° |
| 2026-04-30 14:39 | 44.92328 | 5.70150 | 35155 ft | 463 kts | 202° |
| 2026-04-30 14:40 | 44.83333 | 5.65188 | 35163 ft | 463 kts | 202° |
| 2026-04-30 14:40 | 44.77333 | 5.61900 | 35165 ft | 462 kts | 202° |
| 2026-04-30 14:41 | 44.71334 | 5.58622 | 35162 ft | 462 kts | 202° |
| 2026-04-30 14:41 | 44.65339 | 5.55342 | 35161 ft | 462 kts | 202° |
| 2026-04-30 14:42 | 44.59348 | 5.52065 | 35158 ft | 462 kts | 202° |
| 2026-04-30 14:42 | 44.53356 | 5.48802 | 35162 ft | 462 kts | 202° |
| 2026-04-30 14:43 | 44.47360 | 5.45547 | 35159 ft | 462 kts | 202° |
| 2026-04-30 14:43 | 44.41369 | 5.42307 | 35162 ft | 461 kts | 203° |
| 2026-04-30 14:44 | 44.35385 | 5.39086 | 35162 ft | 461 kts | 203° |
| 2026-04-30 14:44 | 44.29404 | 5.35858 | 35154 ft | 461 kts | 202° |
| 2026-04-30 14:45 | 44.23424 | 5.32633 | 35160 ft | 461 kts | 202° |
| 2026-04-30 14:45 | 44.17446 | 5.29429 | 35168 ft | 459 kts | 202° |
| 2026-04-30 14:46 | 44.11491 | 5.26243 | 35177 ft | 458 kts | 202° |
| 2026-04-30 14:46 | 44.05542 | 5.23061 | 35173 ft | 458 kts | 203° |
| 2026-04-30 14:47 | 43.99603 | 5.19890 | 35183 ft | 457 kts | 203° |
| 2026-04-30 14:47 | 43.93663 | 5.16736 | 35189 ft | 457 kts | 203° |
| 2026-04-30 14:48 | 43.87725 | 5.13586 | 35184 ft | 456 kts | 204° |
| 2026-04-30 14:48 | 43.81795 | 5.10431 | 35187 ft | 456 kts | 204° |
| 2026-04-30 14:49 | 43.75860 | 5.07292 | 35166 ft | 456 kts | 204° |
| 2026-04-30 14:49 | 43.69926 | 5.04168 | 35166 ft | 456 kts | 205° |
| 2026-04-30 14:50 | 43.61039 | 4.99483 | 35175 ft | 455 kts | 205° |
| 2026-04-30 14:51 | 43.52155 | 4.94806 | 35175 ft | 455 kts | 206° |
| 2026-04-30 14:52 | 43.43288 | 4.90190 | 35189 ft | 453 kts | 205° |
| 2026-04-30 14:52 | 43.34486 | 4.85599 | 35183 ft | 453 kts | 205° |
| 2026-04-30 14:53 | 43.25653 | 4.81002 | 35165 ft | 453 kts | 206° |
| 2026-04-30 14:54 | 43.13852 | 4.74899 | 35161 ft | 453 kts | 206° |
| 2026-04-30 14:55 | 43.04989 | 4.70320 | 35148 ft | 454 kts | 206° |
| 2026-04-30 14:56 | 42.93152 | 4.64235 | 35145 ft | 454 kts | 206° |
| 2026-04-30 14:57 | 42.84276 | 4.59687 | 35135 ft | 454 kts | 206° |
| 2026-04-30 14:58 | 42.72436 | 4.53652 | 35125 ft | 454 kts | 206° |
| 2026-04-30 14:58 | 42.63544 | 4.49134 | 35124 ft | 455 kts | 206° |
| 2026-04-30 15:00 | 42.48729 | 4.41614 | 35122 ft | 454 kts | 206° |
| 2026-04-30 15:01 | 42.36902 | 4.35647 | 35133 ft | 453 kts | 206° |
| 2026-04-30 15:01 | 42.28054 | 4.31205 | 35127 ft | 451 kts | 206° |
| 2026-04-30 15:02 | 42.22169 | 4.28259 | 35133 ft | 451 kts | 206° |
| 2026-04-30 15:03 | 42.07490 | 4.20930 | 35127 ft | 449 kts | 207° |
| 2026-04-30 15:04 | 41.92886 | 4.13689 | 35128 ft | 446 kts | 207° |
| 2026-04-30 15:06 | 41.78356 | 4.06475 | 35109 ft | 444 kts | 207° |
| 2026-04-30 15:07 | 41.66747 | 4.00770 | 35089 ft | 444 kts | 207° |
| 2026-04-30 15:08 | 41.55131 | 3.95068 | 35090 ft | 445 kts | 207° |
| 2026-04-30 15:09 | 41.40578 | 3.87966 | 35087 ft | 446 kts | 206° |
| 2026-04-30 15:10 | 41.28960 | 3.82309 | 35116 ft | 443 kts | 206° |
| 2026-04-30 15:11 | 41.12675 | 3.74417 | 35103 ft | 439 kts | 207° |
| 2026-04-30 15:12 | 41.04175 | 3.70006 | 34361 ft | 436 kts | 207° |
| 2026-04-30 15:13 | 40.98515 | 3.67039 | 33865 ft | 439 kts | 207° |
| 2026-04-30 15:14 | 40.87087 | 3.61174 | 32798 ft | 442 kts | 207° |
| 2026-04-30 15:14 | 40.78461 | 3.56770 | 32011 ft | 444 kts | 206° |
| 2026-04-30 15:16 | 40.64001 | 3.49395 | 30768 ft | 447 kts | 206° |
| 2026-04-30 15:17 | 40.52350 | 3.43491 | 27255 ft | 450 kts | 206° |
| 2026-04-30 15:18 | 40.36871 | 3.39665 | 21754 ft | 463 kts | 181° |
| 2026-04-30 15:19 | 40.27408 | 3.40214 | 19198 ft | 450 kts | 181° |